sensor_id;sensor_type;location;lat;lon;timestamp;temperature;humidity
12911;DHT22;6523;49.758;6.120;2023-02-14T00:01:28;-0.80;99.90
12911;DHT22;6523;49.758;6.120;2023-02-14T00:03:54;-0.80;99.90
12911;DHT22;6523;49.758;6.120;2023-02-14T00:06:25;-0.70;99.90
12911;DHT22;6523;49.758;6.120;2023-02-14T00:08:50;-0.80;99.90
12911;DHT22;6523;49.758;6.120;2023-02-14T00:11:19;-0.90;99.90
12911;DHT22;6523;49.758;6.120;2023-02-14T00:13:44;-0.80;99.90
12911;DHT22;6523;49.758;6.120;2023-02-14T00:16:29;-0.70;99.90
12911;DHT22;6523;49.758;6.120;2023-02-14T00:18:55;-0.60;99.90
12911;DHT22;6523;49.758;6.120;2023-02-14T00:21:27;-0.60;99.90
12911;DHT22;6523;49.758;6.120;2023-02-14T00:23:53;-0.50;99.90
12911;DHT22;6523;49.758;6.120;2023-02-14T00:26:18;-0.60;99.90
12911;DHT22;6523;49.758;6.120;2023-02-14T00:28:44;-0.70;99.90
12911;DHT22;6523;49.758;6.120;2023-02-14T00:31:10;-0.80;99.90
12911;DHT22;6523;49.758;6.120;2023-02-14T00:33:36;-0.90;99.90
12911;DHT22;6523;49.758;6.120;2023-02-14T00:36:03;-1.00;99.90
12911;DHT22;6523;49.758;6.120;2023-02-14T00:38:29;-1.00;99.90
12911;DHT22;6523;49.758;6.120;2023-02-14T00:40:54;-1.30;99.90
12911;DHT22;6523;49.758;6.120;2023-02-14T00:43:20;-1.30;99.90
12911;DHT22;6523;49.758;6.120;2023-02-14T00:45:46;-1.30;99.90
12911;DHT22;6523;49.758;6.120;2023-02-14T00:48:11;-1.30;99.90
12911;DHT22;6523;49.758;6.120;2023-02-14T00:50:37;-1.40;99.90
12911;DHT22;6523;49.758;6.120;2023-02-14T00:53:02;-1.40;99.90
12911;DHT22;6523;49.758;6.120;2023-02-14T00:55:28;-1.30;99.90
12911;DHT22;6523;49.758;6.120;2023-02-14T00:57:53;-1.30;99.90
12911;DHT22;6523;49.758;6.120;2023-02-14T01:00:19;-1.20;99.90
12911;DHT22;6523;49.758;6.120;2023-02-14T01:02:45;-1.20;99.90
12911;DHT22;6523;49.758;6.120;2023-02-14T01:05:10;-1.30;99.90
12911;DHT22;6523;49.758;6.120;2023-02-14T01:07:36;-1.40;99.90
12911;DHT22;6523;49.758;6.120;2023-02-14T01:10:01;-1.30;99.90
12911;DHT22;6523;49.758;6.120;2023-02-14T01:12:27;-1.30;99.90
12911;DHT22;6523;49.758;6.120;2023-02-14T01:14:52;-1.20;99.90
12911;DHT22;6523;49.758;6.120;2023-02-14T01:17:18;-1.20;99.90
12911;DHT22;6523;49.758;6.120;2023-02-14T01:19:43;-1.20;99.90
12911;DHT22;6523;49.758;6.120;2023-02-14T01:22:09;-1.30;99.90
12911;DHT22;6523;49.758;6.120;2023-02-14T01:24:35;-1.40;99.90
12911;DHT22;6523;49.758;6.120;2023-02-14T01:27:00;-1.40;99.90
12911;DHT22;6523;49.758;6.120;2023-02-14T01:29:26;-1.50;99.90
12911;DHT22;6523;49.758;6.120;2023-02-14T01:31:51;-1.50;99.90
12911;DHT22;6523;49.758;6.120;2023-02-14T01:34:17;-1.30;99.90
12911;DHT22;6523;49.758;6.120;2023-02-14T01:36:42;-1.20;99.90
12911;DHT22;6523;49.758;6.120;2023-02-14T01:39:11;-1.20;99.90
12911;DHT22;6523;49.758;6.120;2023-02-14T01:41:39;-1.10;99.90
12911;DHT22;6523;49.758;6.120;2023-02-14T01:46:41;-1.30;99.90
12911;DHT22;6523;49.758;6.120;2023-02-14T01:49:20;-1.20;99.90
12911;DHT22;6523;49.758;6.120;2023-02-14T01:51:55;-1.10;99.90
12911;DHT22;6523;49.758;6.120;2023-02-14T01:54:23;-1.20;99.90
12911;DHT22;6523;49.758;6.120;2023-02-14T01:56:54;-1.20;99.90
12911;DHT22;6523;49.758;6.120;2023-02-14T01:59:24;-1.20;99.90
12911;DHT22;6523;49.758;6.120;2023-02-14T02:01:51;-1.20;99.90
12911;DHT22;6523;49.758;6.120;2023-02-14T02:04:31;-1.30;99.90
12911;DHT22;6523;49.758;6.120;2023-02-14T02:07:02;-1.30;99.90
12911;DHT22;6523;49.758;6.120;2023-02-14T02:09:50;-1.30;99.90
12911;DHT22;6523;49.758;6.120;2023-02-14T02:12:17;-1.20;99.90
12911;DHT22;6523;49.758;6.120;2023-02-14T02:14:43;-1.30;99.90
12911;DHT22;6523;49.758;6.120;2023-02-14T02:17:18;-1.20;99.90
12911;DHT22;6523;49.758;6.120;2023-02-14T02:36:56;-1.20;99.90
12911;DHT22;6523;49.758;6.120;2023-02-14T02:50:50;-1.10;99.90
12911;DHT22;6523;49.758;6.120;2023-02-14T02:53:53;-1.20;99.90
12911;DHT22;6523;49.758;6.120;2023-02-14T02:56:36;-1.30;99.90
12911;DHT22;6523;49.758;6.120;2023-02-14T02:59:16;-1.20;99.90
12911;DHT22;6523;49.758;6.120;2023-02-14T03:01:51;-1.10;99.90
12911;DHT22;6523;49.758;6.120;2023-02-14T03:04:18;-1.20;99.90
12911;DHT22;6523;49.758;6.120;2023-02-14T03:07:05;-1.20;99.90
12911;DHT22;6523;49.758;6.120;2023-02-14T03:09:57;-1.40;99.90
12911;DHT22;6523;49.758;6.120;2023-02-14T03:15:27;-1.30;99.90
12911;DHT22;6523;49.758;6.120;2023-02-14T03:20:54;-1.30;99.90
12911;DHT22;6523;49.758;6.120;2023-02-14T03:24:02;-1.20;99.90
12911;DHT22;6523;49.758;6.120;2023-02-14T03:26:36;-1.10;99.90
12911;DHT22;6523;49.758;6.120;2023-02-14T03:29:33;-1.20;99.90
12911;DHT22;6523;49.758;6.120;2023-02-14T03:32:14;-1.30;99.90
12911;DHT22;6523;49.758;6.120;2023-02-14T03:35:18;-1.30;99.90
12911;DHT22;6523;49.758;6.120;2023-02-14T03:37:59;-1.30;99.90
12911;DHT22;6523;49.758;6.120;2023-02-14T03:40:47;-1.30;99.90
12911;DHT22;6523;49.758;6.120;2023-02-14T03:43:27;-1.40;99.90
12911;DHT22;6523;49.758;6.120;2023-02-14T03:46:24;-1.40;99.90
12911;DHT22;6523;49.758;6.120;2023-02-14T03:48:49;-1.30;99.90
12911;DHT22;6523;49.758;6.120;2023-02-14T03:51:17;-1.30;99.90
12911;DHT22;6523;49.758;6.120;2023-02-14T03:53:47;-1.40;99.90
12911;DHT22;6523;49.758;6.120;2023-02-14T03:58:56;-1.60;99.90
12911;DHT22;6523;49.758;6.120;2023-02-14T04:01:44;-1.50;99.90
12911;DHT22;6523;49.758;6.120;2023-02-14T04:04:14;-1.60;99.90
12911;DHT22;6523;49.758;6.120;2023-02-14T04:06:41;-1.50;99.90
12911;DHT22;6523;49.758;6.120;2023-02-14T04:09:06;-1.60;99.90
12911;DHT22;6523;49.758;6.120;2023-02-14T04:11:32;-1.60;99.90
12911;DHT22;6523;49.758;6.120;2023-02-14T04:14:00;-1.60;99.90
12911;DHT22;6523;49.758;6.120;2023-02-14T04:16:26;-1.60;99.90
12911;DHT22;6523;49.758;6.120;2023-02-14T04:18:51;-1.60;99.90
12911;DHT22;6523;49.758;6.120;2023-02-14T04:21:36;-1.60;99.90
12911;DHT22;6523;49.758;6.120;2023-02-14T04:24:01;-1.60;99.90
12911;DHT22;6523;49.758;6.120;2023-02-14T04:26:27;-1.80;99.90
12911;DHT22;6523;49.758;6.120;2023-02-14T04:28:52;-1.70;99.90
12911;DHT22;6523;49.758;6.120;2023-02-14T04:31:18;-1.70;99.90
12911;DHT22;6523;49.758;6.120;2023-02-14T04:33:43;-1.80;99.90
12911;DHT22;6523;49.758;6.120;2023-02-14T04:36:10;-1.90;99.90
12911;DHT22;6523;49.758;6.120;2023-02-14T04:38:35;-1.70;99.90
12911;DHT22;6523;49.758;6.120;2023-02-14T04:41:01;-1.60;99.90
12911;DHT22;6523;49.758;6.120;2023-02-14T04:43:27;-1.60;99.90
12911;DHT22;6523;49.758;6.120;2023-02-14T04:45:53;-1.60;99.90
12911;DHT22;6523;49.758;6.120;2023-02-14T04:48:19;-1.60;99.90
12911;DHT22;6523;49.758;6.120;2023-02-14T04:50:50;-1.80;99.90
12911;DHT22;6523;49.758;6.120;2023-02-14T04:53:16;-1.80;99.90
12911;DHT22;6523;49.758;6.120;2023-02-14T04:55:43;-1.90;99.90
12911;DHT22;6523;49.758;6.120;2023-02-14T04:58:09;-2.00;99.90
12911;DHT22;6523;49.758;6.120;2023-02-14T05:00:35;-2.00;99.90
12911;DHT22;6523;49.758;6.120;2023-02-14T05:03:00;-2.00;99.90
12911;DHT22;6523;49.758;6.120;2023-02-14T05:05:26;-2.10;99.90
12911;DHT22;6523;49.758;6.120;2023-02-14T05:07:51;-2.20;99.90
12911;DHT22;6523;49.758;6.120;2023-02-14T05:10:17;-2.10;99.90
12911;DHT22;6523;49.758;6.120;2023-02-14T05:12:42;-2.00;99.90
12911;DHT22;6523;49.758;6.120;2023-02-14T05:15:08;-1.90;99.90
12911;DHT22;6523;49.758;6.120;2023-02-14T05:17:34;-1.80;99.90
12911;DHT22;6523;49.758;6.120;2023-02-14T05:20:00;-1.80;99.90
12911;DHT22;6523;49.758;6.120;2023-02-14T05:22:26;-1.70;99.90
12911;DHT22;6523;49.758;6.120;2023-02-14T05:24:51;-1.80;99.90
12911;DHT22;6523;49.758;6.120;2023-02-14T05:27:17;-1.90;99.90
12911;DHT22;6523;49.758;6.120;2023-02-14T05:29:42;-2.00;99.90
12911;DHT22;6523;49.758;6.120;2023-02-14T05:32:08;-2.10;99.90
12911;DHT22;6523;49.758;6.120;2023-02-14T05:34:33;-2.10;99.90
12911;DHT22;6523;49.758;6.120;2023-02-14T05:36:59;-2.00;99.90
12911;DHT22;6523;49.758;6.120;2023-02-14T05:39:24;-2.00;99.90
12911;DHT22;6523;49.758;6.120;2023-02-14T05:41:50;-1.80;99.90
12911;DHT22;6523;49.758;6.120;2023-02-14T05:44:15;-1.80;99.90
12911;DHT22;6523;49.758;6.120;2023-02-14T05:46:41;-1.80;99.90
12911;DHT22;6523;49.758;6.120;2023-02-14T05:49:06;-1.80;99.90
12911;DHT22;6523;49.758;6.120;2023-02-14T05:51:32;-1.70;99.90
12911;DHT22;6523;49.758;6.120;2023-02-14T05:53:57;-2.00;99.90
12911;DHT22;6523;49.758;6.120;2023-02-14T05:56:25;-2.00;99.90
12911;DHT22;6523;49.758;6.120;2023-02-14T05:58:51;-2.00;99.90
12911;DHT22;6523;49.758;6.120;2023-02-14T06:01:16;-2.10;99.90
12911;DHT22;6523;49.758;6.120;2023-02-14T06:03:42;-2.20;99.90
12911;DHT22;6523;49.758;6.120;2023-02-14T06:06:07;-2.30;99.90
12911;DHT22;6523;49.758;6.120;2023-02-14T06:08:33;-2.20;99.90
12911;DHT22;6523;49.758;6.120;2023-02-14T06:10:58;-2.30;99.90
12911;DHT22;6523;49.758;6.120;2023-02-14T06:13:24;-2.40;99.90
12911;DHT22;6523;49.758;6.120;2023-02-14T06:15:49;-2.40;99.90
12911;DHT22;6523;49.758;6.120;2023-02-14T06:18:15;-2.40;99.90
12911;DHT22;6523;49.758;6.120;2023-02-14T06:20:40;-2.30;99.90
12911;DHT22;6523;49.758;6.120;2023-02-14T06:23:06;-2.20;99.90
12911;DHT22;6523;49.758;6.120;2023-02-14T06:25:32;-2.10;99.90
12911;DHT22;6523;49.758;6.120;2023-02-14T06:27:58;-2.10;99.90
12911;DHT22;6523;49.758;6.120;2023-02-14T06:30:24;-2.10;99.90
12911;DHT22;6523;49.758;6.120;2023-02-14T06:32:50;-2.20;99.90
12911;DHT22;6523;49.758;6.120;2023-02-14T06:35:16;-2.20;99.90
12911;DHT22;6523;49.758;6.120;2023-02-14T06:37:41;-2.40;99.90
12911;DHT22;6523;49.758;6.120;2023-02-14T06:40:09;-2.40;99.90
12911;DHT22;6523;49.758;6.120;2023-02-14T06:42:35;-2.40;99.90
12911;DHT22;6523;49.758;6.120;2023-02-14T06:45:01;-2.30;99.90
12911;DHT22;6523;49.758;6.120;2023-02-14T06:47:27;-2.20;99.90
12911;DHT22;6523;49.758;6.120;2023-02-14T06:49:52;-2.10;99.90
12911;DHT22;6523;49.758;6.120;2023-02-14T06:52:18;-2.10;99.90
12911;DHT22;6523;49.758;6.120;2023-02-14T06:54:43;-2.10;99.90
12911;DHT22;6523;49.758;6.120;2023-02-14T06:57:09;-2.20;99.90
12911;DHT22;6523;49.758;6.120;2023-02-14T06:59:34;-2.40;99.90
12911;DHT22;6523;49.758;6.120;2023-02-14T07:02:00;-2.40;99.90
12911;DHT22;6523;49.758;6.120;2023-02-14T07:04:26;-2.50;99.90
12911;DHT22;6523;49.758;6.120;2023-02-14T07:06:51;-2.50;99.90
12911;DHT22;6523;49.758;6.120;2023-02-14T07:09:17;-2.40;99.90
12911;DHT22;6523;49.758;6.120;2023-02-14T07:11:45;-2.60;99.90
12911;DHT22;6523;49.758;6.120;2023-02-14T07:14:12;-2.50;99.90
12911;DHT22;6523;49.758;6.120;2023-02-14T07:16:37;-2.40;99.90
12911;DHT22;6523;49.758;6.120;2023-02-14T07:19:03;-2.50;99.90
12911;DHT22;6523;49.758;6.120;2023-02-14T07:21:29;-2.40;99.90
12911;DHT22;6523;49.758;6.120;2023-02-14T07:23:54;-2.30;99.90
12911;DHT22;6523;49.758;6.120;2023-02-14T07:26:20;-2.30;99.90
12911;DHT22;6523;49.758;6.120;2023-02-14T07:28:46;-2.30;99.90
12911;DHT22;6523;49.758;6.120;2023-02-14T07:31:16;-2.40;99.90
12911;DHT22;6523;49.758;6.120;2023-02-14T07:33:42;-2.30;99.90
12911;DHT22;6523;49.758;6.120;2023-02-14T07:36:08;-2.40;99.90
12911;DHT22;6523;49.758;6.120;2023-02-14T07:38:35;-2.40;99.90
12911;DHT22;6523;49.758;6.120;2023-02-14T07:41:01;-2.30;99.90
12911;DHT22;6523;49.758;6.120;2023-02-14T07:43:26;-2.30;99.90
12911;DHT22;6523;49.758;6.120;2023-02-14T07:45:52;-2.30;99.90
12911;DHT22;6523;49.758;6.120;2023-02-14T07:48:18;-2.30;99.90
12911;DHT22;6523;49.758;6.120;2023-02-14T07:50:44;-2.30;99.90
12911;DHT22;6523;49.758;6.120;2023-02-14T07:53:09;-2.40;99.90
12911;DHT22;6523;49.758;6.120;2023-02-14T07:55:35;-2.30;99.90
12911;DHT22;6523;49.758;6.120;2023-02-14T07:58:01;-2.40;99.90
12911;DHT22;6523;49.758;6.120;2023-02-14T08:00:27;-2.30;99.90
12911;DHT22;6523;49.758;6.120;2023-02-14T08:02:52;-2.30;99.90
12911;DHT22;6523;49.758;6.120;2023-02-14T08:05:20;-2.20;99.90
12911;DHT22;6523;49.758;6.120;2023-02-14T08:07:46;-2.10;99.90
12911;DHT22;6523;49.758;6.120;2023-02-14T08:10:11;-2.20;99.90
12911;DHT22;6523;49.758;6.120;2023-02-14T08:12:37;-2.30;99.90
12911;DHT22;6523;49.758;6.120;2023-02-14T08:15:21;-2.10;99.90
12911;DHT22;6523;49.758;6.120;2023-02-14T08:18:05;-2.00;99.90
12911;DHT22;6523;49.758;6.120;2023-02-14T08:20:31;-2.00;99.90
12911;DHT22;6523;49.758;6.120;2023-02-14T08:22:57;-1.80;99.90
12911;DHT22;6523;49.758;6.120;2023-02-14T08:25:22;-2.00;99.90
12911;DHT22;6523;49.758;6.120;2023-02-14T08:27:48;-2.00;99.90
12911;DHT22;6523;49.758;6.120;2023-02-14T08:30:14;-1.80;99.90
12911;DHT22;6523;49.758;6.120;2023-02-14T08:32:39;-1.80;99.90
12911;DHT22;6523;49.758;6.120;2023-02-14T08:35:06;-1.70;99.90
12911;DHT22;6523;49.758;6.120;2023-02-14T08:37:31;-1.70;99.90
12911;DHT22;6523;49.758;6.120;2023-02-14T08:39:57;-1.70;99.90
12911;DHT22;6523;49.758;6.120;2023-02-14T08:42:22;-1.60;99.90
12911;DHT22;6523;49.758;6.120;2023-02-14T08:44:48;-1.60;99.90
12911;DHT22;6523;49.758;6.120;2023-02-14T08:47:14;-1.50;99.90
12911;DHT22;6523;49.758;6.120;2023-02-14T08:49:39;-1.40;99.90
12911;DHT22;6523;49.758;6.120;2023-02-14T08:52:05;-1.20;99.90
12911;DHT22;6523;49.758;6.120;2023-02-14T08:54:30;-1.20;99.90
12911;DHT22;6523;49.758;6.120;2023-02-14T08:56:57;-1.00;99.90
12911;DHT22;6523;49.758;6.120;2023-02-14T08:59:23;-0.90;99.90
12911;DHT22;6523;49.758;6.120;2023-02-14T09:01:48;-0.90;99.90
12911;DHT22;6523;49.758;6.120;2023-02-14T09:04:14;-0.80;99.90
12911;DHT22;6523;49.758;6.120;2023-02-14T09:06:39;-1.20;99.90
12911;DHT22;6523;49.758;6.120;2023-02-14T09:09:05;-1.10;99.90
12911;DHT22;6523;49.758;6.120;2023-02-14T09:11:31;-1.40;99.90
12911;DHT22;6523;49.758;6.120;2023-02-14T09:13:57;-1.30;99.90
12911;DHT22;6523;49.758;6.120;2023-02-14T09:16:23;-1.10;99.90
12911;DHT22;6523;49.758;6.120;2023-02-14T09:18:50;-0.80;99.90
12911;DHT22;6523;49.758;6.120;2023-02-14T09:21:22;-0.70;99.90
12911;DHT22;6523;49.758;6.120;2023-02-14T09:23:48;-0.50;99.90
12911;DHT22;6523;49.758;6.120;2023-02-14T09:26:15;-0.80;99.90
12911;DHT22;6523;49.758;6.120;2023-02-14T09:28:41;-0.40;99.90
12911;DHT22;6523;49.758;6.120;2023-02-14T09:31:09;-0.30;99.90
12911;DHT22;6523;49.758;6.120;2023-02-14T09:33:35;-0.20;99.90
12911;DHT22;6523;49.758;6.120;2023-02-14T09:36:00;0.00;99.90
12911;DHT22;6523;49.758;6.120;2023-02-14T09:38:41;0.20;99.90
12911;DHT22;6523;49.758;6.120;2023-02-14T09:44:06;0.30;99.90
12911;DHT22;6523;49.758;6.120;2023-02-14T09:46:40;0.20;99.90
12911;DHT22;6523;49.758;6.120;2023-02-14T09:49:13;0.20;99.90
12911;DHT22;6523;49.758;6.120;2023-02-14T09:51:45;0.40;99.90
12911;DHT22;6523;49.758;6.120;2023-02-14T09:54:15;0.10;99.90
12911;DHT22;6523;49.758;6.120;2023-02-14T09:59:47;0.10;99.90
12911;DHT22;6523;49.758;6.120;2023-02-14T10:05:23;0.90;99.90
12911;DHT22;6523;49.758;6.120;2023-02-14T10:11:06;1.40;99.90
12911;DHT22;6523;49.758;6.120;2023-02-14T10:13:43;1.40;99.90
12911;DHT22;6523;49.758;6.120;2023-02-14T10:18:45;1.50;99.90
12911;DHT22;6523;49.758;6.120;2023-02-14T10:21:20;1.60;99.90
12911;DHT22;6523;49.758;6.120;2023-02-14T10:23:55;2.00;99.90
12911;DHT22;6523;49.758;6.120;2023-02-14T10:26:40;2.20;99.90
12911;DHT22;6523;49.758;6.120;2023-02-14T10:29:10;2.50;99.90
12911;DHT22;6523;49.758;6.120;2023-02-14T10:34:34;3.00;99.90
12911;DHT22;6523;49.758;6.120;2023-02-14T10:45:58;3.60;99.90
12911;DHT22;6523;49.758;6.120;2023-02-14T10:48:42;3.70;99.90
12911;DHT22;6523;49.758;6.120;2023-02-14T10:51:24;3.80;99.90
12911;DHT22;6523;49.758;6.120;2023-02-14T10:56:46;4.40;99.90
12911;DHT22;6523;49.758;6.120;2023-02-14T10:59:33;5.40;99.90
12911;DHT22;6523;49.758;6.120;2023-02-14T11:02:00;5.80;99.90
12911;DHT22;6523;49.758;6.120;2023-02-14T11:04:27;6.40;99.90
12911;DHT22;6523;49.758;6.120;2023-02-14T11:06:54;6.50;99.90
12911;DHT22;6523;49.758;6.120;2023-02-14T11:09:20;6.60;99.90
12911;DHT22;6523;49.758;6.120;2023-02-14T11:11:58;6.40;99.90
12911;DHT22;6523;49.758;6.120;2023-02-14T11:14:28;6.50;99.90
12911;DHT22;6523;49.758;6.120;2023-02-14T11:16:55;7.30;99.90
12911;DHT22;6523;49.758;6.120;2023-02-14T11:19:30;7.40;99.90
12911;DHT22;6523;49.758;6.120;2023-02-14T11:21:58;7.20;99.90
12911;DHT22;6523;49.758;6.120;2023-02-14T11:24:35;7.10;99.90
12911;DHT22;6523;49.758;6.120;2023-02-14T11:29:42;8.50;99.90
12911;DHT22;6523;49.758;6.120;2023-02-14T11:32:15;8.80;99.90
12911;DHT22;6523;49.758;6.120;2023-02-14T11:34:46;9.20;99.90
12911;DHT22;6523;49.758;6.120;2023-02-14T11:37:25;9.50;99.90
12911;DHT22;6523;49.758;6.120;2023-02-14T11:39:53;9.00;99.90
12911;DHT22;6523;49.758;6.120;2023-02-14T11:42:42;10.00;99.90
12911;DHT22;6523;49.758;6.120;2023-02-14T11:45:37;10.30;99.90
12911;DHT22;6523;49.758;6.120;2023-02-14T11:48:26;10.30;99.90
12911;DHT22;6523;49.758;6.120;2023-02-14T11:51:10;10.50;99.90
12911;DHT22;6523;49.758;6.120;2023-02-14T11:53:54;10.30;99.90
12911;DHT22;6523;49.758;6.120;2023-02-14T11:56:22;11.20;99.90
12911;DHT22;6523;49.758;6.120;2023-02-14T11:58:56;11.30;99.90
12911;DHT22;6523;49.758;6.120;2023-02-14T12:01:31;11.40;99.90
12911;DHT22;6523;49.758;6.120;2023-02-14T12:04:01;11.70;99.90
12911;DHT22;6523;49.758;6.120;2023-02-14T12:06:30;12.00;99.90
12911;DHT22;6523;49.758;6.120;2023-02-14T12:11:59;10.90;99.90
12911;DHT22;6523;49.758;6.120;2023-02-14T12:14:28;10.70;99.90
12911;DHT22;6523;49.758;6.120;2023-02-14T12:17:03;11.90;99.90
12911;DHT22;6523;49.758;6.120;2023-02-14T12:20:11;11.90;99.90
12911;DHT22;6523;49.758;6.120;2023-02-14T12:22:49;12.10;99.90
12911;DHT22;6523;49.758;6.120;2023-02-14T12:25:21;11.70;99.90
12911;DHT22;6523;49.758;6.120;2023-02-14T12:30:15;11.20;99.90
12911;DHT22;6523;49.758;6.120;2023-02-14T12:32:49;12.40;99.90
12911;DHT22;6523;49.758;6.120;2023-02-14T12:38:01;13.30;99.90
12911;DHT22;6523;49.758;6.120;2023-02-14T12:49:41;12.80;99.90
12911;DHT22;6523;49.758;6.120;2023-02-14T12:51:50;11.80;99.90
12911;DHT22;6523;49.758;6.120;2023-02-14T12:59:55;14.40;99.90
12911;DHT22;6523;49.758;6.120;2023-02-14T13:11:14;13.20;99.90
12911;DHT22;6523;49.758;6.120;2023-02-14T13:21:51;14.70;99.90
12911;DHT22;6523;49.758;6.120;2023-02-14T13:24:25;14.70;99.90
12911;DHT22;6523;49.758;6.120;2023-02-14T13:26:59;14.80;99.90
12911;DHT22;6523;49.758;6.120;2023-02-14T13:29:35;15.00;99.90
12911;DHT22;6523;49.758;6.120;2023-02-14T13:32:03;15.20;99.90
12911;DHT22;6523;49.758;6.120;2023-02-14T13:34:35;15.10;99.90
12911;DHT22;6523;49.758;6.120;2023-02-14T13:37:05;14.60;99.90
12911;DHT22;6523;49.758;6.120;2023-02-14T13:39:50;13.50;99.90
12911;DHT22;6523;49.758;6.120;2023-02-14T13:50:39;15.20;99.90
12911;DHT22;6523;49.758;6.120;2023-02-14T13:53:12;14.90;99.90
12911;DHT22;6523;49.758;6.120;2023-02-14T13:55:53;14.40;99.90
12911;DHT22;6523;49.758;6.120;2023-02-14T13:58:20;14.20;99.90
12911;DHT22;6523;49.758;6.120;2023-02-14T14:00:54;15.20;99.90
12911;DHT22;6523;49.758;6.120;2023-02-14T14:11:48;14.30;99.90
12911;DHT22;6523;49.758;6.120;2023-02-14T14:14:34;14.60;99.90
12911;DHT22;6523;49.758;6.120;2023-02-14T14:17:02;14.60;99.90
12911;DHT22;6523;49.758;6.120;2023-02-14T14:24:33;13.80;99.90
12911;DHT22;6523;49.758;6.120;2023-02-14T14:29:41;13.70;99.90
12911;DHT22;6523;49.758;6.120;2023-02-14T14:32:16;13.90;99.90
12911;DHT22;6523;49.758;6.120;2023-02-14T14:34:52;13.70;99.90
12911;DHT22;6523;49.758;6.120;2023-02-14T14:37:20;13.70;99.90
12911;DHT22;6523;49.758;6.120;2023-02-14T14:40:00;13.70;99.90
12911;DHT22;6523;49.758;6.120;2023-02-14T14:42:37;13.70;99.90
12911;DHT22;6523;49.758;6.120;2023-02-14T14:45:16;13.90;99.90
12911;DHT22;6523;49.758;6.120;2023-02-14T14:47:44;14.00;99.90
12911;DHT22;6523;49.758;6.120;2023-02-14T14:50:24;13.80;99.90
12911;DHT22;6523;49.758;6.120;2023-02-14T14:52:54;13.90;99.90
12911;DHT22;6523;49.758;6.120;2023-02-14T14:55:33;13.70;99.90
12911;DHT22;6523;49.758;6.120;2023-02-14T14:58:02;13.80;99.90
12911;DHT22;6523;49.758;6.120;2023-02-14T15:00:31;13.70;99.90
12911;DHT22;6523;49.758;6.120;2023-02-14T15:05:44;13.70;99.90
12911;DHT22;6523;49.758;6.120;2023-02-14T15:10:41;13.70;99.90
12911;DHT22;6523;49.758;6.120;2023-02-14T15:13:11;13.50;99.90
12911;DHT22;6523;49.758;6.120;2023-02-14T15:15:57;13.50;99.90
12911;DHT22;6523;49.758;6.120;2023-02-14T15:18:23;13.60;99.90
12911;DHT22;6523;49.758;6.120;2023-02-14T15:20:49;13.50;99.90
12911;DHT22;6523;49.758;6.120;2023-02-14T15:23:21;13.50;99.90
12911;DHT22;6523;49.758;6.120;2023-02-14T15:25:48;13.50;99.90
12911;DHT22;6523;49.758;6.120;2023-02-14T15:31:00;13.10;99.90
12911;DHT22;6523;49.758;6.120;2023-02-14T15:33:28;13.10;99.90
12911;DHT22;6523;49.758;6.120;2023-02-14T15:35:55;13.10;99.90
12911;DHT22;6523;49.758;6.120;2023-02-14T15:38:22;12.90;99.90
12911;DHT22;6523;49.758;6.120;2023-02-14T15:40:49;12.70;99.90
12911;DHT22;6523;49.758;6.120;2023-02-14T15:45:48;12.90;99.90
12911;DHT22;6523;49.758;6.120;2023-02-14T15:48:29;12.50;99.90
12911;DHT22;6523;49.758;6.120;2023-02-14T15:50:59;12.90;99.90
12911;DHT22;6523;49.758;6.120;2023-02-14T15:55:52;12.80;99.90
12911;DHT22;6523;49.758;6.120;2023-02-14T15:58:24;13.00;99.90
12911;DHT22;6523;49.758;6.120;2023-02-14T16:00:51;13.30;99.90
12911;DHT22;6523;49.758;6.120;2023-02-14T16:03:23;13.20;99.90
12911;DHT22;6523;49.758;6.120;2023-02-14T16:05:50;13.00;99.90
12911;DHT22;6523;49.758;6.120;2023-02-14T16:08:37;13.00;99.90
12911;DHT22;6523;49.758;6.120;2023-02-14T16:11:24;13.10;99.90
12911;DHT22;6523;49.758;6.120;2023-02-14T16:13:51;13.00;99.90
12911;DHT22;6523;49.758;6.120;2023-02-14T16:16:17;13.10;99.90
12911;DHT22;6523;49.758;6.120;2023-02-14T16:21:30;12.40;99.90
12911;DHT22;6523;49.758;6.120;2023-02-14T16:26:37;12.00;99.90
12911;DHT22;6523;49.758;6.120;2023-02-14T16:29:04;11.80;99.90
12911;DHT22;6523;49.758;6.120;2023-02-14T16:31:30;11.30;99.90
12911;DHT22;6523;49.758;6.120;2023-02-14T16:33:56;10.70;99.90
12911;DHT22;6523;49.758;6.120;2023-02-14T16:36:28;10.00;99.90
12911;DHT22;6523;49.758;6.120;2023-02-14T16:38:54;9.90;99.90
12911;DHT22;6523;49.758;6.120;2023-02-14T16:41:22;8.90;99.90
12911;DHT22;6523;49.758;6.120;2023-02-14T16:43:49;8.80;99.90
12911;DHT22;6523;49.758;6.120;2023-02-14T16:46:19;8.80;99.90
12911;DHT22;6523;49.758;6.120;2023-02-14T16:48:46;8.80;99.90
12911;DHT22;6523;49.758;6.120;2023-02-14T16:51:16;8.40;99.90
12911;DHT22;6523;49.758;6.120;2023-02-14T16:53:42;8.10;99.90
12911;DHT22;6523;49.758;6.120;2023-02-14T16:56:14;7.60;99.90
12911;DHT22;6523;49.758;6.120;2023-02-14T16:58:41;7.40;99.90
12911;DHT22;6523;49.758;6.120;2023-02-14T17:01:07;7.20;99.90
12911;DHT22;6523;49.758;6.120;2023-02-14T17:03:33;7.00;99.90
12911;DHT22;6523;49.758;6.120;2023-02-14T17:05:59;6.80;99.90
12911;DHT22;6523;49.758;6.120;2023-02-14T17:08:26;6.80;99.90
12911;DHT22;6523;49.758;6.120;2023-02-14T17:10:53;7.00;99.90
12911;DHT22;6523;49.758;6.120;2023-02-14T17:13:24;6.80;99.90
12911;DHT22;6523;49.758;6.120;2023-02-14T17:15:51;6.80;99.90
12911;DHT22;6523;49.758;6.120;2023-02-14T17:18:18;7.00;99.90
12911;DHT22;6523;49.758;6.120;2023-02-14T17:20:45;7.10;99.90
12911;DHT22;6523;49.758;6.120;2023-02-14T17:23:11;7.00;99.90
12911;DHT22;6523;49.758;6.120;2023-02-14T17:25:38;6.60;99.90
12911;DHT22;6523;49.758;6.120;2023-02-14T17:28:03;6.30;99.90
12911;DHT22;6523;49.758;6.120;2023-02-14T17:30:29;6.30;99.90
12911;DHT22;6523;49.758;6.120;2023-02-14T17:32:55;6.50;99.90
12911;DHT22;6523;49.758;6.120;2023-02-14T17:35:21;6.60;99.90
12911;DHT22;6523;49.758;6.120;2023-02-14T17:37:46;6.50;99.90
12911;DHT22;6523;49.758;6.120;2023-02-14T17:40:12;6.10;99.90
12911;DHT22;6523;49.758;6.120;2023-02-14T17:42:39;6.30;99.90
12911;DHT22;6523;49.758;6.120;2023-02-14T17:45:06;6.40;99.90
12911;DHT22;6523;49.758;6.120;2023-02-14T17:47:33;6.30;99.90
12911;DHT22;6523;49.758;6.120;2023-02-14T17:49:58;6.00;99.90
12911;DHT22;6523;49.758;6.120;2023-02-14T17:52:24;5.30;99.90
12911;DHT22;6523;49.758;6.120;2023-02-14T17:54:50;5.20;99.90
12911;DHT22;6523;49.758;6.120;2023-02-14T17:57:16;5.40;99.90
12911;DHT22;6523;49.758;6.120;2023-02-14T17:59:42;5.10;99.90
12911;DHT22;6523;49.758;6.120;2023-02-14T18:02:09;5.00;99.90
12911;DHT22;6523;49.758;6.120;2023-02-14T18:04:35;4.80;99.90
12911;DHT22;6523;49.758;6.120;2023-02-14T18:07:02;5.10;99.90
12911;DHT22;6523;49.758;6.120;2023-02-14T18:09:28;5.50;99.90
12911;DHT22;6523;49.758;6.120;2023-02-14T18:11:53;5.20;99.90
12911;DHT22;6523;49.758;6.120;2023-02-14T18:14:20;4.80;99.90
12911;DHT22;6523;49.758;6.120;2023-02-14T18:16:45;4.70;99.90
12911;DHT22;6523;49.758;6.120;2023-02-14T18:19:11;5.10;99.90
12911;DHT22;6523;49.758;6.120;2023-02-14T18:21:41;4.90;99.90
12911;DHT22;6523;49.758;6.120;2023-02-14T18:24:07;4.60;99.90
12911;DHT22;6523;49.758;6.120;2023-02-14T18:26:35;4.40;99.90
12911;DHT22;6523;49.758;6.120;2023-02-14T18:29:01;4.10;99.90
12911;DHT22;6523;49.758;6.120;2023-02-14T18:31:34;4.40;99.90
12911;DHT22;6523;49.758;6.120;2023-02-14T18:34:00;4.40;99.90
12911;DHT22;6523;49.758;6.120;2023-02-14T18:36:26;4.10;99.90
12911;DHT22;6523;49.758;6.120;2023-02-14T18:38:52;3.50;99.90